createdAt,value
2022-10-22T00:00:14.680Z,26.67
2022-10-22T00:03:00.706Z,23.98
2022-10-22T00:05:47.917Z,28.45
2022-10-22T00:08:34.305Z,25.67
2022-10-22T00:11:20.577Z,28.73
2022-10-22T00:14:06.974Z,32.25
2022-10-22T00:16:53.025Z,32.67
2022-10-22T00:19:39.676Z,26.83
2022-10-22T00:22:25.544Z,31.30
2022-10-22T00:25:11.470Z,30.90
2022-10-22T00:27:57.455Z,29.23
2022-10-22T00:30:43.524Z,27.73
2022-10-22T00:33:30.182Z,26.58
2022-10-22T00:36:16.975Z,25.38
2022-10-22T00:39:03.318Z,26.52
2022-10-22T00:41:51.050Z,30.42
2022-10-22T00:45:10.892Z,24.15
2022-10-22T00:48:06.965Z,25.30
2022-10-22T00:50:58.171Z,23.98
2022-10-22T00:53:49.335Z,22.73
2022-10-22T00:56:34.958Z,23.85
2022-10-22T00:59:20.952Z,24.77
2022-10-22T01:02:07.073Z,25.27
2022-10-22T01:04:53.166Z,30.33
2022-10-22T01:07:43.576Z,25.70
2022-10-22T01:10:56.109Z,21.73
2022-10-22T01:14:12.631Z,27.40
2022-10-22T01:17:27.103Z,25.63
2022-10-22T01:20:16.184Z,21.85
2022-10-22T01:23:27.578Z,27.15
2022-10-22T01:26:35.195Z,26.25
2022-10-22T01:29:21.190Z,23.55
2022-10-22T01:32:14.357Z,23.98
2022-10-22T01:35:03.209Z,24.27
2022-10-22T01:38:01.632Z,24.67
2022-10-22T01:40:48.368Z,28.13
2022-10-22T01:43:34.250Z,24.25
2022-10-22T01:46:21.642Z,36.50
2022-10-22T01:49:26.153Z,28.65
2022-10-22T01:52:12.264Z,26.58
2022-10-22T01:55:08.122Z,26.73
2022-10-22T01:58:05.920Z,41.25
2022-10-22T02:01:20.835Z,103.07
2022-10-22T02:04:28.801Z,43.70
2022-10-22T02:07:20.127Z,32.20
2022-10-22T02:10:08.164Z,31.90
2022-10-22T02:12:56.116Z,24.73
2022-10-22T02:15:44.266Z,27.90
2022-10-22T02:18:35.275Z,25.30
2022-10-22T02:21:23.696Z,24.23
2022-10-22T02:24:09.596Z,23.05
2022-10-22T02:27:07.652Z,25.23
2022-10-22T02:30:01.991Z,26.52
2022-10-22T02:32:53.648Z,21.05
2022-10-22T02:35:41.011Z,29.03
2022-10-22T02:38:27.562Z,29.55
2022-10-22T02:41:13.809Z,24.38
2022-10-22T02:44:02.198Z,24.48
2022-10-22T02:46:48.715Z,22.42
2022-10-22T02:49:34.970Z,19.65
2022-10-22T02:52:20.868Z,24.65
2022-10-22T02:55:07.390Z,33.25
2022-10-22T02:57:53.150Z,30.25
2022-10-22T03:00:39.155Z,21.95
2022-10-22T03:03:24.957Z,18.23
2022-10-22T03:06:11.131Z,20.83
2022-10-22T03:08:57.142Z,20.33
2022-10-22T03:11:43.009Z,22.88
2022-10-22T03:14:28.821Z,24.02
2022-10-22T03:17:14.847Z,21.67
2022-10-22T03:20:01.034Z,22.48
2022-10-22T03:22:46.947Z,26.77
2022-10-22T03:25:34.638Z,24.10
2022-10-22T03:28:20.836Z,26.50
2022-10-22T03:31:07.382Z,23.67
2022-10-22T03:33:53.262Z,25.98
2022-10-22T03:36:40.286Z,22.35
2022-10-22T03:39:28.090Z,23.08
2022-10-22T03:42:14.221Z,25.45
2022-10-22T03:45:00.267Z,25.52
2022-10-22T03:47:46.281Z,29.73
2022-10-22T03:50:32.113Z,23.92
2022-10-22T03:53:17.930Z,26.20
2022-10-22T03:56:08.279Z,26.48
2022-10-22T03:58:57.584Z,23.33
2022-10-22T04:01:43.553Z,24.40
2022-10-22T04:04:29.560Z,20.23
2022-10-22T04:07:15.308Z,24.02
2022-10-22T04:10:01.387Z,25.88
2022-10-22T04:12:48.420Z,22.73
2022-10-22T04:15:34.419Z,20.92
2022-10-22T04:18:21.391Z,21.65
2022-10-22T04:21:09.238Z,22.35
2022-10-22T04:23:55.117Z,21.60
2022-10-22T04:26:41.171Z,24.13
2022-10-22T04:29:27.433Z,29.83
2022-10-22T04:32:13.208Z,23.05
2022-10-22T04:34:59.024Z,22.25
2022-10-22T04:37:45.113Z,29.38
2022-10-22T04:40:30.977Z,29.10
2022-10-22T04:43:16.922Z,26.10
2022-10-22T04:46:02.877Z,27.35
2022-10-22T04:48:49.183Z,27.30
2022-10-22T04:51:35.136Z,32.50
2022-10-22T04:54:21.260Z,33.72
2022-10-22T04:57:07.333Z,30.27
2022-10-22T04:59:53.293Z,31.27
2022-10-22T05:02:39.253Z,24.52
2022-10-22T05:05:25.269Z,25.30
2022-10-22T05:08:11.200Z,21.90
2022-10-22T05:10:57.165Z,22.30
2022-10-22T05:13:43.524Z,24.27
2022-10-22T05:16:30.078Z,26.05
2022-10-22T05:19:36.490Z,24.33
2022-10-22T05:22:22.421Z,25.92
2022-10-22T05:25:08.649Z,25.88
2022-10-22T05:27:57.210Z,28.13
2022-10-22T05:30:54.321Z,25.67
2022-10-22T05:33:41.228Z,26.75
2022-10-22T05:36:27.211Z,24.60
2022-10-22T05:39:13.565Z,27.15
2022-10-22T05:41:59.266Z,29.52
2022-10-22T05:44:45.201Z,26.85
2022-10-22T05:47:31.042Z,31.55
2022-10-22T05:50:16.855Z,33.85
2022-10-22T05:53:03.561Z,32.25
2022-10-22T05:55:49.733Z,33.08
2022-10-22T05:58:36.879Z,36.20
2022-10-22T06:01:31.586Z,39.50
2022-10-22T06:04:20.944Z,31.23
2022-10-22T06:07:11.043Z,32.97
2022-10-22T06:09:57.317Z,30.60
2022-10-22T06:12:43.217Z,29.73
2022-10-22T06:15:29.325Z,34.97
2022-10-22T06:18:15.616Z,31.35
2022-10-22T06:21:09.852Z,34.65
2022-10-22T06:23:57.029Z,42.33
2022-10-22T06:26:43.141Z,38.58
2022-10-22T06:29:29.341Z,32.80
2022-10-22T06:32:15.158Z,30.08
2022-10-22T06:35:01.124Z,30.75
2022-10-22T06:37:47.604Z,35.92
2022-10-22T06:40:33.925Z,29.95
2022-10-22T06:43:19.916Z,32.00
2022-10-22T06:46:08.813Z,32.80
2022-10-22T06:49:00.613Z,41.58
2022-10-22T06:51:50.539Z,37.70
2022-10-22T06:54:36.895Z,36.80
2022-10-22T06:57:23.135Z,41.28
2022-10-22T07:00:09.533Z,40.05
2022-10-22T07:02:57.791Z,42.88
2022-10-22T07:05:46.031Z,33.95
2022-10-22T07:08:32.245Z,40.03
2022-10-22T07:11:27.019Z,30.00
2022-10-22T07:14:13.995Z,35.20
2022-10-22T07:17:00.283Z,32.50
2022-10-22T07:19:49.633Z,34.13
2022-10-22T07:22:37.376Z,40.92
2022-10-22T07:25:23.780Z,44.28
2022-10-22T07:28:09.879Z,58.45
2022-10-22T07:30:55.818Z,52.38
2022-10-22T07:33:45.365Z,60.45
2022-10-22T07:36:31.655Z,43.78
2022-10-22T07:39:18.026Z,57.70
2022-10-22T07:42:04.036Z,64.88
2022-10-22T07:44:50.255Z,55.90
2022-10-22T07:47:36.502Z,63.63
2022-10-22T07:50:22.805Z,62.72
2022-10-22T07:53:09.061Z,57.58
2022-10-22T07:55:55.350Z,56.00
2022-10-22T07:58:42.140Z,55.67
2022-10-22T08:01:28.946Z,65.18
2022-10-22T08:04:18.247Z,55.58
2022-10-22T08:07:04.798Z,46.35
2022-10-22T08:10:21.940Z,55.47
2022-10-22T08:13:08.411Z,47.33
2022-10-22T08:15:57.331Z,47.40
2022-10-22T08:18:43.796Z,47.00
2022-10-22T08:21:30.040Z,48.95
2022-10-22T08:24:16.305Z,51.55
2022-10-22T08:27:02.319Z,49.13
2022-10-22T08:29:48.227Z,57.58
2022-10-22T08:32:34.136Z,47.25
2022-10-22T08:35:20.454Z,39.03
2022-10-22T08:38:06.370Z,37.35
2022-10-22T08:40:54.693Z,39.40
2022-10-22T08:44:09.064Z,37.13
2022-10-22T08:47:10.257Z,35.90
2022-10-22T08:49:57.194Z,35.47
2022-10-22T08:52:45.062Z,52.13
2022-10-22T08:55:35.162Z,32.13
2022-10-22T08:58:38.695Z,36.05
2022-10-22T09:01:46.478Z,38.08
2022-10-22T09:04:47.965Z,36.13
2022-10-22T09:07:34.384Z,44.85
2022-10-22T09:10:22.725Z,44.75
2022-10-22T09:13:11.704Z,50.33
2022-10-22T09:16:01.549Z,37.28
2022-10-22T09:19:12.246Z,44.92
2022-10-22T09:22:29.069Z,36.88
2022-10-22T09:25:21.446Z,48.88
2022-10-22T09:28:09.522Z,37.30
2022-10-22T09:30:55.377Z,28.20
2022-10-22T09:33:43.852Z,34.35
2022-10-22T09:36:30.120Z,27.40
2022-10-22T09:39:32.297Z,41.67
2022-10-22T09:42:20.758Z,31.92
2022-10-22T09:45:07.189Z,28.83
2022-10-22T09:48:10.740Z,25.23
2022-10-22T09:51:25.976Z,23.00
2022-10-22T09:54:19.349Z,16.13
2022-10-22T09:57:16.688Z,16.17
2022-10-22T10:00:02.523Z,17.33
2022-10-22T10:02:59.311Z,18.70
2022-10-22T10:05:49.373Z,23.42
2022-10-22T10:08:35.354Z,30.10
2022-10-22T10:11:29.432Z,19.65
2022-10-22T10:14:34.791Z,17.60
2022-10-22T10:17:45.460Z,19.70
2022-10-22T10:20:54.477Z,19.65
2022-10-22T10:23:55.643Z,13.40
2022-10-22T10:27:03.213Z,31.27
2022-10-22T10:29:52.794Z,18.90
2022-10-22T10:32:51.079Z,17.05
2022-10-22T10:35:43.555Z,18.65
2022-10-22T10:41:41.609Z,13.63
2022-10-22T10:44:36.829Z,18.30
2022-10-22T10:47:41.475Z,17.85
2022-10-22T10:50:39.598Z,20.85
2022-10-22T10:53:58.805Z,20.25
2022-10-22T10:56:47.982Z,17.52
2022-10-22T10:59:49.920Z,16.08
2022-10-22T11:02:46.606Z,17.42
2022-10-22T11:05:48.930Z,26.83
2022-10-22T11:08:38.932Z,18.03
2022-10-22T11:11:44.308Z,12.85
2022-10-22T11:14:50.898Z,14.27
2022-10-22T11:17:41.492Z,17.25
2022-10-22T11:20:57.895Z,11.70
2022-10-22T11:24:13.022Z,15.82
2022-10-22T11:27:27.326Z,21.02
2022-10-22T11:30:22.047Z,20.45
2022-10-22T11:33:12.056Z,15.70
2022-10-22T11:35:58.131Z,27.75
2022-10-22T11:38:44.357Z,20.33
2022-10-22T11:41:32.696Z,20.63
2022-10-22T11:44:23.689Z,17.73
2022-10-22T11:47:18.174Z,20.58
2022-10-22T11:50:25.427Z,19.00
2022-10-22T11:53:15.361Z,23.83
2022-10-22T11:56:07.503Z,17.73
2022-10-22T11:58:55.113Z,21.65
2022-10-22T12:01:42.708Z,17.60
2022-10-22T12:04:42.299Z,15.35
2022-10-22T12:07:41.513Z,19.38
2022-10-22T12:10:30.594Z,24.25
2022-10-22T12:13:28.891Z,14.18
2022-10-22T12:16:15.508Z,15.38
2022-10-22T12:19:15.731Z,18.98
2022-10-22T12:22:08.012Z,20.45
2022-10-22T12:24:57.245Z,24.90
2022-10-22T12:27:43.543Z,20.48
2022-10-22T12:30:32.027Z,13.82
2022-10-22T12:33:23.230Z,12.50
2022-10-22T12:36:17.993Z,10.82
2022-10-22T12:39:12.089Z,16.45
2022-10-22T12:41:58.185Z,12.02
2022-10-22T12:44:44.861Z,17.35
2022-10-22T12:47:31.003Z,13.30
2022-10-22T12:50:22.782Z,21.33
2022-10-22T12:53:17.905Z,18.40
2022-10-22T12:56:12.546Z,14.60
2022-10-22T12:59:01.560Z,28.90
2022-10-22T13:01:48.972Z,27.40
2022-10-22T13:04:36.999Z,12.68
2022-10-22T13:07:43.502Z,10.38
2022-10-22T13:10:39.325Z,23.42
2022-10-22T13:13:42.651Z,13.82
2022-10-22T13:16:30.203Z,18.30
2022-10-22T13:19:42.676Z,14.48
2022-10-22T13:22:31.722Z,14.73
2022-10-22T13:25:19.569Z,13.10
2022-10-22T13:28:15.464Z,14.63
2022-10-22T13:31:10.347Z,14.85
2022-10-22T13:33:59.193Z,15.00
2022-10-22T13:36:46.965Z,12.85
2022-10-22T13:39:35.293Z,12.80
2022-10-22T13:42:21.385Z,13.90
2022-10-22T13:45:07.693Z,22.55
2022-10-22T13:47:54.491Z,13.73
2022-10-22T13:50:40.606Z,17.00
2022-10-22T13:53:28.036Z,22.88
2022-10-22T13:56:15.963Z,19.48
2022-10-22T13:59:01.935Z,22.92
2022-10-22T14:01:47.948Z,20.98
2022-10-22T14:04:35.963Z,19.73
2022-10-22T14:07:22.290Z,21.48
2022-10-22T14:10:18.341Z,22.38
2022-10-22T14:13:07.709Z,21.88
2022-10-22T14:15:53.982Z,16.75
2022-10-22T14:18:39.948Z,17.38
2022-10-22T14:21:26.216Z,29.90
2022-10-22T14:24:13.387Z,28.90
2022-10-22T14:26:59.736Z,30.23
2022-10-22T14:29:46.028Z,34.60
2022-10-22T14:32:32.317Z,28.80
2022-10-22T14:35:23.937Z,33.47
2022-10-22T14:38:10.357Z,29.98
2022-10-22T14:40:56.720Z,34.05
2022-10-22T14:43:42.838Z,35.92
2022-10-22T14:46:29.125Z,36.63
2022-10-22T14:49:15.275Z,40.88
2022-10-22T14:52:01.180Z,37.45
2022-10-22T14:54:48.607Z,30.90
2022-10-22T14:57:34.719Z,31.90
2022-10-22T15:00:21.294Z,51.28
2022-10-22T15:03:07.065Z,66.28
2022-10-22T15:05:54.083Z,45.17
2022-10-22T15:08:40.063Z,46.15
2022-10-22T15:11:26.854Z,41.85
2022-10-22T15:14:12.753Z,38.85
2022-10-22T15:16:59.681Z,44.58
2022-10-22T15:19:45.749Z,39.50
2022-10-22T15:22:35.198Z,43.25
2022-10-22T15:25:21.254Z,43.95
2022-10-22T15:28:09.896Z,42.90
2022-10-22T15:30:58.497Z,45.67
2022-10-22T15:33:44.666Z,63.47
2022-10-22T15:36:30.607Z,103.18
2022-10-22T15:39:16.569Z,71.93
2022-10-22T15:42:02.707Z,59.35
2022-10-22T15:44:48.568Z,50.92
2022-10-22T15:47:34.762Z,37.83
2022-10-22T15:50:20.945Z,42.40
2022-10-22T15:53:06.880Z,49.95
2022-10-22T15:55:55.324Z,44.53
2022-10-22T15:58:41.704Z,32.90
2022-10-22T16:01:27.753Z,41.47
2022-10-22T16:04:14.273Z,38.15
2022-10-22T16:07:00.201Z,43.15
2022-10-22T16:09:46.504Z,42.80
2022-10-22T16:12:32.736Z,42.65
2022-10-22T16:15:18.540Z,38.97
2022-10-22T16:18:04.673Z,40.67
2022-10-22T16:20:51.157Z,36.72
2022-10-22T16:23:37.236Z,37.97
2022-10-22T16:26:23.179Z,30.73
2022-10-22T16:29:11.474Z,26.50
2022-10-22T16:31:57.419Z,25.58
2022-10-22T16:34:43.332Z,28.63
2022-10-22T16:37:29.510Z,24.60
2022-10-22T16:40:15.708Z,23.48
2022-10-22T16:43:01.898Z,28.25
2022-10-22T16:45:51.162Z,30.10
2022-10-22T16:48:42.224Z,36.10
2022-10-22T16:51:28.738Z,33.50
2022-10-22T16:54:15.748Z,31.67
2022-10-22T16:57:01.864Z,35.80
2022-10-22T16:59:47.921Z,37.97
2022-10-22T17:02:35.327Z,51.63
2022-10-22T17:05:21.799Z,39.50
2022-10-22T17:08:07.905Z,53.97
2022-10-22T17:10:53.807Z,41.83
2022-10-22T17:13:43.725Z,46.08
2022-10-22T17:16:29.766Z,31.02
2022-10-22T17:19:16.408Z,59.83
2022-10-22T17:22:02.393Z,66.45
2022-10-22T17:25:24.805Z,53.55
2022-10-22T17:28:11.653Z,39.92
2022-10-22T17:31:18.070Z,54.58
2022-10-22T17:34:06.905Z,31.85
2022-10-22T17:36:53.449Z,34.35
2022-10-22T17:39:39.590Z,34.25
2022-10-22T17:42:25.543Z,41.03
2022-10-22T17:45:11.824Z,54.53
2022-10-22T17:47:57.838Z,34.03
2022-10-22T17:50:48.209Z,38.85
2022-10-22T17:53:38.752Z,42.33
2022-10-22T17:56:27.410Z,28.13
2022-10-22T17:59:16.205Z,40.17
2022-10-22T18:02:03.247Z,41.80
2022-10-22T18:04:52.626Z,30.45
2022-10-22T18:07:38.460Z,54.20
2022-10-22T18:10:24.691Z,48.47
2022-10-22T18:13:11.033Z,51.25
2022-10-22T18:15:57.436Z,45.05
2022-10-22T18:18:46.139Z,39.03
2022-10-22T18:21:31.979Z,40.17
2022-10-22T18:24:18.769Z,43.50
2022-10-22T18:27:05.182Z,49.17
2022-10-22T18:29:51.168Z,38.63
2022-10-22T18:32:37.289Z,31.73
2022-10-22T18:35:38.610Z,40.13
2022-10-22T18:38:25.347Z,35.22
2022-10-22T18:41:14.227Z,38.70
2022-10-22T18:44:02.593Z,42.22
2022-10-22T18:46:48.630Z,40.92
2022-10-22T18:49:34.732Z,30.98
2022-10-22T18:52:20.933Z,32.00
2022-10-22T18:55:07.297Z,31.13
2022-10-22T18:57:53.488Z,37.08
2022-10-22T19:00:39.540Z,41.40
2022-10-22T19:03:25.699Z,43.15
2022-10-22T19:06:17.955Z,44.97
2022-10-22T19:11:50.636Z,48.42
2022-10-22T19:14:36.625Z,45.47
2022-10-22T19:17:23.164Z,57.53
2022-10-22T19:20:09.809Z,39.90
2022-10-22T19:22:56.900Z,41.55
2022-10-22T19:25:42.775Z,46.60
2022-10-22T19:28:28.822Z,48.42
2022-10-22T19:31:19.450Z,39.28
2022-10-22T19:34:05.492Z,33.50
2022-10-22T19:36:51.901Z,33.78
2022-10-22T19:39:38.570Z,27.13
2022-10-22T19:42:25.181Z,26.98
2022-10-22T19:45:11.481Z,34.63
2022-10-22T19:47:57.757Z,26.48
2022-10-22T19:50:43.766Z,42.03
2022-10-22T19:53:30.907Z,52.10
2022-10-22T19:56:19.883Z,34.90
2022-10-22T19:59:06.230Z,42.50
2022-10-22T20:01:52.272Z,58.40
2022-10-22T20:04:38.219Z,35.67
2022-10-22T20:07:24.303Z,38.50
2022-10-22T20:10:12.028Z,49.55
2022-10-22T20:12:58.516Z,45.63
2022-10-22T20:15:48.700Z,35.45
2022-10-22T20:18:34.784Z,36.33
2022-10-22T20:21:22.016Z,43.20
2022-10-22T20:24:08.352Z,33.35
2022-10-22T20:26:54.551Z,39.80
2022-10-22T20:29:40.767Z,39.22
2022-10-22T20:32:28.003Z,39.00
2022-10-22T20:35:14.963Z,41.40
2022-10-22T20:38:01.091Z,36.35
2022-10-22T20:40:47.215Z,29.30
2022-10-22T20:43:33.972Z,37.97
2022-10-22T20:46:24.125Z,36.92
2022-10-22T20:49:12.313Z,31.77
2022-10-22T20:51:59.164Z,30.08
2022-10-22T20:54:45.873Z,33.47
2022-10-22T20:57:32.312Z,39.17
2022-10-22T21:00:18.541Z,28.10
2022-10-22T21:03:04.700Z,27.40
2022-10-22T21:05:50.764Z,28.60
2022-10-22T21:08:36.744Z,38.38
2022-10-22T21:11:23.424Z,29.77
2022-10-22T21:14:11.154Z,25.15
2022-10-22T21:16:57.525Z,37.20
2022-10-22T21:19:43.547Z,32.20
2022-10-22T21:22:29.545Z,25.73
2022-10-22T21:25:15.911Z,31.75
2022-10-22T21:28:02.165Z,29.13
2022-10-22T21:30:48.074Z,26.17
2022-10-22T21:33:38.276Z,28.27
2022-10-22T21:36:25.107Z,32.00
2022-10-22T21:39:12.716Z,35.03
2022-10-22T21:41:58.682Z,30.55
2022-10-22T21:44:44.881Z,31.92
2022-10-22T21:47:30.968Z,34.20
2022-10-22T21:50:17.245Z,31.45
2022-10-22T21:53:03.146Z,31.13
2022-10-22T21:55:49.360Z,26.15
2022-10-22T21:58:36.298Z,27.88
2022-10-22T22:01:22.832Z,26.13
2022-10-22T22:04:09.016Z,30.80
2022-10-22T22:06:55.091Z,31.38
2022-10-22T22:09:40.877Z,40.00
2022-10-22T22:12:26.924Z,27.63
2022-10-22T22:15:13.447Z,27.80
2022-10-22T22:17:59.510Z,28.42
2022-10-22T22:20:45.500Z,21.70
2022-10-22T22:23:31.711Z,30.27
2022-10-22T22:26:25.316Z,26.83
2022-10-22T22:29:14.516Z,24.65
2022-10-22T22:32:00.419Z,25.05
2022-10-22T22:34:48.684Z,26.35
2022-10-22T22:37:34.560Z,29.17
2022-10-22T22:40:20.433Z,26.98
2022-10-22T22:43:06.450Z,28.45
2022-10-22T22:46:07.831Z,24.90
2022-10-22T22:48:53.896Z,26.08
2022-10-22T22:51:39.660Z,24.80
2022-10-22T22:54:25.605Z,33.45
2022-10-22T22:57:11.830Z,32.13
2022-10-22T22:59:57.641Z,24.92
2022-10-22T23:02:43.972Z,24.88
2022-10-22T23:05:30.613Z,20.85
2022-10-22T23:08:16.413Z,27.23
2022-10-22T23:11:10.609Z,27.15
2022-10-22T23:14:01.956Z,18.35
2022-10-22T23:16:50.149Z,20.58
2022-10-22T23:19:36.281Z,20.15
2022-10-22T23:22:22.062Z,21.33
2022-10-22T23:25:08.337Z,18.65
2022-10-22T23:27:54.976Z,21.63
2022-10-22T23:30:44.401Z,30.05
2022-10-22T23:33:31.054Z,26.27
2022-10-22T23:36:17.411Z,22.65
2022-10-22T23:39:06.252Z,24.42
2022-10-22T23:41:53.247Z,31.85
2022-10-22T23:44:39.118Z,21.02
2022-10-22T23:47:25.128Z,17.45
2022-10-22T23:50:13.052Z,19.67
2022-10-22T23:52:59.288Z,19.83
2022-10-22T23:55:45.381Z,19.52
2022-10-22T23:58:31.493Z,22.88
